Terminal Aerodrome Forecast
Issued by NWS

Home | Current Version | Previous Version | Text Only | Print | Product List | Glossary On
Versions: 1 2 3 4 5 6 7 8 9 10 11 12 13 14 15 16 17 18 19 20 21 22 23 24 25 26
000
FTUS43 KGRB 110329 AAA
TAFRHI
TAF AMD
KRHI 110329Z 1103/1124 29004KT P6SM -SHSN OVC026
     FM110800 18004KT 3SM -SHSN OVC024
     FM111000 18004KT 1SM -SHSN OVC011
     FM111800 27003KT 2SM -SHSN OVC010
     FM111900 33007KT 6SM -SHSN OVC019=

USA.gov is the U.S. government's official web portal to all federal, state and local government web resources and services.